sensor_id;sensor_type;location;lat;lon;timestamp;pressure;altitude;pressure_sealevel;temperature;humidity
60479;BME280;46321;48.398;11.754;2022-07-22T00:01:35;96960.41;;;18.68;83.38
60479;BME280;46321;48.398;11.754;2022-07-22T00:04:01;96961.25;;;18.68;84.04
60479;BME280;46321;48.398;11.754;2022-07-22T00:06:28;96960.84;;;18.64;84.38
60479;BME280;46321;48.398;11.754;2022-07-22T00:08:54;96958.16;;;18.64;83.83
60479;BME280;46321;48.398;11.754;2022-07-22T00:11:19;96958.16;;;18.64;83.47
60479;BME280;46321;48.398;11.754;2022-07-22T00:13:44;96955.47;;;18.64;83.32
60479;BME280;46321;48.398;11.754;2022-07-22T00:16:11;96954.66;;;18.64;84.37
60479;BME280;46321;48.398;11.754;2022-07-22T00:18:36;96956.13;;;18.60;83.78
60479;BME280;46321;48.398;11.754;2022-07-22T00:21:02;96955.09;;;18.61;83.57
60479;BME280;46321;48.398;11.754;2022-07-22T00:23:27;96954.09;;;18.55;83.56
60479;BME280;46321;48.398;11.754;2022-07-22T00:25:53;96955.75;;;18.56;83.25
60479;BME280;46321;48.398;11.754;2022-07-22T00:28:19;96943.81;;;18.52;82.67
60479;BME280;46321;48.398;11.754;2022-07-22T00:30:44;96944.41;;;18.54;82.52
60479;BME280;46321;48.398;11.754;2022-07-22T00:33:09;96940.31;;;18.51;82.73
60479;BME280;46321;48.398;11.754;2022-07-22T00:35:34;96939.28;;;18.52;82.44
60479;BME280;46321;48.398;11.754;2022-07-22T00:38:00;96934.13;;;18.51;83.18
60479;BME280;46321;48.398;11.754;2022-07-22T00:40:25;96932.50;;;18.50;82.79
60479;BME280;46321;48.398;11.754;2022-07-22T00:42:50;96927.31;;;18.48;82.86
60479;BME280;46321;48.398;11.754;2022-07-22T00:45:16;96931.47;;;18.44;82.83
60479;BME280;46321;48.398;11.754;2022-07-22T00:47:41;96933.41;;;18.37;83.31
60479;BME280;46321;48.398;11.754;2022-07-22T00:50:07;96926.38;;;18.36;83.47
60479;BME280;46321;48.398;11.754;2022-07-22T00:52:33;96933.81;;;18.34;83.43
60479;BME280;46321;48.398;11.754;2022-07-22T00:55:00;96928.88;;;18.30;83.32
60479;BME280;46321;48.398;11.754;2022-07-22T00:57:26;96928.47;;;18.27;83.22
60479;BME280;46321;48.398;11.754;2022-07-22T00:59:52;96932.59;;;18.29;83.39
60479;BME280;46321;48.398;11.754;2022-07-22T01:02:17;96931.81;;;18.22;83.40
60479;BME280;46321;48.398;11.754;2022-07-22T01:04:42;96933.88;;;18.20;83.41
60479;BME280;46321;48.398;11.754;2022-07-22T01:07:08;96929.94;;;18.16;83.74
60479;BME280;46321;48.398;11.754;2022-07-22T01:09:33;96929.34;;;18.14;83.56
60479;BME280;46321;48.398;11.754;2022-07-22T01:11:58;96938.84;;;18.10;83.56
60479;BME280;46321;48.398;11.754;2022-07-22T01:14:24;96927.94;;;18.04;84.13
60479;BME280;46321;48.398;11.754;2022-07-22T01:16:49;96929.41;;;18.00;83.93
60479;BME280;46321;48.398;11.754;2022-07-22T01:19:14;96923.44;;;17.98;83.70
60479;BME280;46321;48.398;11.754;2022-07-22T01:21:40;96926.53;;;17.95;83.75
60479;BME280;46321;48.398;11.754;2022-07-22T01:24:06;96925.91;;;17.93;84.18
60479;BME280;46321;48.398;11.754;2022-07-22T01:26:31;96929.22;;;17.88;84.39
60479;BME280;46321;48.398;11.754;2022-07-22T01:28:58;96933.13;;;17.92;84.04
60479;BME280;46321;48.398;11.754;2022-07-22T01:31:23;96921.41;;;17.87;83.71
60479;BME280;46321;48.398;11.754;2022-07-22T01:33:49;96927.19;;;17.83;83.85
60479;BME280;46321;48.398;11.754;2022-07-22T01:36:14;96927.00;;;17.78;83.94
60479;BME280;46321;48.398;11.754;2022-07-22T01:38:39;96927.63;;;17.80;83.78
60479;BME280;46321;48.398;11.754;2022-07-22T01:41:05;96933.22;;;17.72;84.66
60479;BME280;46321;48.398;11.754;2022-07-22T01:43:30;96928.69;;;17.66;84.35
60479;BME280;46321;48.398;11.754;2022-07-22T01:45:56;96925.84;;;17.60;84.78
60479;BME280;46321;48.398;11.754;2022-07-22T01:48:22;96926.66;;;17.54;84.91
60479;BME280;46321;48.398;11.754;2022-07-22T01:50:49;96924.63;;;17.56;84.54
60479;BME280;46321;48.398;11.754;2022-07-22T01:53:14;96931.19;;;17.54;84.22
60479;BME280;46321;48.398;11.754;2022-07-22T01:55:40;96928.31;;;17.55;83.88
60479;BME280;46321;48.398;11.754;2022-07-22T01:58:05;96927.69;;;17.53;84.08
60479;BME280;46321;48.398;11.754;2022-07-22T02:00:31;96929.31;;;17.54;83.38
60479;BME280;46321;48.398;11.754;2022-07-22T02:02:57;96922.56;;;17.51;83.65
60479;BME280;46321;48.398;11.754;2022-07-22T02:05:22;96928.72;;;17.38;84.46
60479;BME280;46321;48.398;11.754;2022-07-22T02:07:48;96925.88;;;17.40;84.78
60479;BME280;46321;48.398;11.754;2022-07-22T02:10:13;96926.72;;;17.34;84.96
60479;BME280;46321;48.398;11.754;2022-07-22T02:12:38;96924.66;;;17.29;84.77
60479;BME280;46321;48.398;11.754;2022-07-22T02:15:05;96924.84;;;17.34;84.60
60479;BME280;46321;48.398;11.754;2022-07-22T02:17:32;96923.00;;;17.28;84.89
60479;BME280;46321;48.398;11.754;2022-07-22T02:19:57;96923.44;;;17.25;84.62
60479;BME280;46321;48.398;11.754;2022-07-22T02:22:22;96924.25;;;17.19;83.99
60479;BME280;46321;48.398;11.754;2022-07-22T02:24:48;96925.28;;;17.17;84.59
60479;BME280;46321;48.398;11.754;2022-07-22T02:27:13;96920.53;;;17.13;84.25
60479;BME280;46321;48.398;11.754;2022-07-22T02:29:38;96920.34;;;17.14;84.31
60479;BME280;46321;48.398;11.754;2022-07-22T02:32:04;96924.22;;;17.12;84.46
60479;BME280;46321;48.398;11.754;2022-07-22T02:34:29;96928.53;;;17.13;84.16
60479;BME280;46321;48.398;11.754;2022-07-22T02:36:54;96918.84;;;17.12;84.80
60479;BME280;46321;48.398;11.754;2022-07-22T02:39:20;96927.94;;;17.11;84.73
60479;BME280;46321;48.398;11.754;2022-07-22T02:41:45;96920.91;;;17.10;84.89
60479;BME280;46321;48.398;11.754;2022-07-22T02:44:11;96923.81;;;17.08;84.66
60479;BME280;46321;48.398;11.754;2022-07-22T02:46:36;96918.88;;;17.05;84.75
60479;BME280;46321;48.398;11.754;2022-07-22T02:49:02;96923.41;;;16.98;85.14
60479;BME280;46321;48.398;11.754;2022-07-22T02:51:27;96922.78;;;16.89;85.91
60479;BME280;46321;48.398;11.754;2022-07-22T02:53:52;96918.25;;;16.89;86.20
60479;BME280;46321;48.398;11.754;2022-07-22T02:56:18;96910.84;;;16.85;85.92
60479;BME280;46321;48.398;11.754;2022-07-22T02:58:45;96923.19;;;16.86;86.20
60479;BME280;46321;48.398;11.754;2022-07-22T03:01:12;96917.22;;;16.83;86.73
60479;BME280;46321;48.398;11.754;2022-07-22T03:03:37;96927.09;;;16.69;87.33
60479;BME280;46321;48.398;11.754;2022-07-22T03:06:03;96923.19;;;16.72;87.44
60479;BME280;46321;48.398;11.754;2022-07-22T03:08:28;96930.78;;;16.68;87.45
60479;BME280;46321;48.398;11.754;2022-07-22T03:10:53;96928.13;;;16.62;87.50
60479;BME280;46321;48.398;11.754;2022-07-22T03:13:19;96932.84;;;16.66;87.23
60479;BME280;46321;48.398;11.754;2022-07-22T03:15:44;96932.63;;;16.68;86.78
60479;BME280;46321;48.398;11.754;2022-07-22T03:18:09;96938.19;;;16.66;86.57
60479;BME280;46321;48.398;11.754;2022-07-22T03:20:35;96940.03;;;16.66;86.72
60479;BME280;46321;48.398;11.754;2022-07-22T03:23:00;96934.91;;;16.64;86.03
60479;BME280;46321;48.398;11.754;2022-07-22T03:25:26;96933.63;;;16.60;87.03
60479;BME280;46321;48.398;11.754;2022-07-22T03:27:51;96935.31;;;16.61;87.12
60479;BME280;46321;48.398;11.754;2022-07-22T03:30:16;96932.84;;;16.59;87.81
60479;BME280;46321;48.398;11.754;2022-07-22T03:32:42;96932.22;;;16.57;87.43
60479;BME280;46321;48.398;11.754;2022-07-22T03:35:12;96935.69;;;16.58;87.81
60479;BME280;46321;48.398;11.754;2022-07-22T03:37:38;96933.44;;;16.55;87.28
60479;BME280;46321;48.398;11.754;2022-07-22T03:40:03;96932.38;;;16.49;87.35
60479;BME280;46321;48.398;11.754;2022-07-22T03:42:29;96935.06;;;16.49;87.05
60479;BME280;46321;48.398;11.754;2022-07-22T03:44:54;96930.97;;;16.46;87.30
60479;BME280;46321;48.398;11.754;2022-07-22T03:47:21;96931.56;;;16.42;87.47
60479;BME280;46321;48.398;11.754;2022-07-22T03:49:47;96941.22;;;16.43;86.97
60479;BME280;46321;48.398;11.754;2022-07-22T03:52:13;96935.47;;;16.46;86.57
60479;BME280;46321;48.398;11.754;2022-07-22T03:54:39;96932.81;;;16.46;87.34
60479;BME280;46321;48.398;11.754;2022-07-22T03:57:04;96938.13;;;16.39;88.37
60479;BME280;46321;48.398;11.754;2022-07-22T03:59:29;96937.09;;;16.40;88.12
60479;BME280;46321;48.398;11.754;2022-07-22T04:01:55;96937.72;;;16.42;87.65
60479;BME280;46321;48.398;11.754;2022-07-22T04:04:20;96941.22;;;16.43;88.03
60479;BME280;46321;48.398;11.754;2022-07-22T04:06:45;96943.88;;;16.43;88.20
60479;BME280;46321;48.398;11.754;2022-07-22T04:09:11;96938.16;;;16.46;87.87
60479;BME280;46321;48.398;11.754;2022-07-22T04:11:36;96934.88;;;16.44;88.39
60479;BME280;46321;48.398;11.754;2022-07-22T04:14:02;96930.31;;;16.44;87.98
60479;BME280;46321;48.398;11.754;2022-07-22T04:16:27;96929.94;;;16.47;87.74
60479;BME280;46321;48.398;11.754;2022-07-22T04:18:53;96939.19;;;16.52;88.08
60479;BME280;46321;48.398;11.754;2022-07-22T04:21:18;96929.94;;;16.47;88.24
60479;BME280;46321;48.398;11.754;2022-07-22T04:23:43;96927.03;;;16.49;88.82
60479;BME280;46321;48.398;11.754;2022-07-22T04:26:09;96929.72;;;16.56;88.89
60479;BME280;46321;48.398;11.754;2022-07-22T04:28:34;96921.31;;;16.59;88.42
60479;BME280;46321;48.398;11.754;2022-07-22T04:31:01;96925.22;;;16.63;88.26
60479;BME280;46321;48.398;11.754;2022-07-22T04:33:27;96928.31;;;16.67;87.91
60479;BME280;46321;48.398;11.754;2022-07-22T04:35:52;96926.06;;;16.70;88.34
60479;BME280;46321;48.398;11.754;2022-07-22T04:38:17;96921.13;;;16.74;88.24
60479;BME280;46321;48.398;11.754;2022-07-22T04:40:43;96922.16;;;16.73;87.88
60479;BME280;46321;48.398;11.754;2022-07-22T04:43:08;96925.25;;;16.77;88.04
60479;BME280;46321;48.398;11.754;2022-07-22T04:45:33;96920.53;;;16.86;87.87
60479;BME280;46321;48.398;11.754;2022-07-22T04:47:59;96926.88;;;16.98;86.95
60479;BME280;46321;48.398;11.754;2022-07-22T04:50:24;96918.88;;;17.05;86.22
60479;BME280;46321;48.398;11.754;2022-07-22T04:52:49;96926.50;;;17.15;85.71
60479;BME280;46321;48.398;11.754;2022-07-22T04:55:15;96930.03;;;17.15;85.96
60479;BME280;46321;48.398;11.754;2022-07-22T04:57:40;96935.75;;;17.26;86.09
60479;BME280;46321;48.398;11.754;2022-07-22T05:00:06;96922.59;;;17.31;85.23
60479;BME280;46321;48.398;11.754;2022-07-22T05:02:31;96938.22;;;17.27;85.45
60479;BME280;46321;48.398;11.754;2022-07-22T05:04:58;96938.03;;;17.29;85.67
60479;BME280;46321;48.398;11.754;2022-07-22T05:07:23;96941.72;;;17.35;85.46
60479;BME280;46321;48.398;11.754;2022-07-22T05:09:49;96932.66;;;17.43;84.83
60479;BME280;46321;48.398;11.754;2022-07-22T05:12:14;96924.44;;;17.37;84.16
60479;BME280;46321;48.398;11.754;2022-07-22T05:14:39;96932.66;;;17.43;83.84
60479;BME280;46321;48.398;11.754;2022-07-22T05:17:09;96927.09;;;17.51;84.00
60479;BME280;46321;48.398;11.754;2022-07-22T05:19:38;96929.34;;;17.47;83.88
60479;BME280;46321;48.398;11.754;2022-07-22T05:22:03;96932.00;;;17.47;84.29
60479;BME280;46321;48.398;11.754;2022-07-22T05:24:28;96938.38;;;17.60;84.37
60479;BME280;46321;48.398;11.754;2022-07-22T05:26:54;96932.81;;;17.61;84.04
60479;BME280;46321;48.398;11.754;2022-07-22T05:29:19;96933.81;;;17.74;83.32
60479;BME280;46321;48.398;11.754;2022-07-22T05:31:44;96931.31;;;17.86;82.63
60479;BME280;46321;48.398;11.754;2022-07-22T05:34:10;96930.03;;;17.95;82.83
60479;BME280;46321;48.398;11.754;2022-07-22T05:36:35;96928.19;;;17.96;82.15
60479;BME280;46321;48.398;11.754;2022-07-22T05:39:00;96931.22;;;18.06;81.95
60479;BME280;46321;48.398;11.754;2022-07-22T05:41:26;96931.81;;;18.22;81.37
60479;BME280;46321;48.398;11.754;2022-07-22T05:43:51;96927.22;;;18.36;81.26
60479;BME280;46321;48.398;11.754;2022-07-22T05:46:16;96926.28;;;18.49;81.47
60479;BME280;46321;48.398;11.754;2022-07-22T05:48:41;96918.59;;;18.60;80.34
60479;BME280;46321;48.398;11.754;2022-07-22T05:51:11;96924.50;;;18.69;79.95
60479;BME280;46321;48.398;11.754;2022-07-22T05:53:37;96933.53;;;18.81;79.58
60479;BME280;46321;48.398;11.754;2022-07-22T05:56:03;96924.16;;;18.91;78.91
60479;BME280;46321;48.398;11.754;2022-07-22T05:58:28;96928.84;;;18.95;78.42
60479;BME280;46321;48.398;11.754;2022-07-22T06:00:53;96924.66;;;18.81;78.72
60479;BME280;46321;48.398;11.754;2022-07-22T06:03:19;96926.22;;;18.88;78.25
60479;BME280;46321;48.398;11.754;2022-07-22T06:05:44;96924.88;;;19.05;76.93
60479;BME280;46321;48.398;11.754;2022-07-22T06:08:10;96914.88;;;19.19;76.88
60479;BME280;46321;48.398;11.754;2022-07-22T06:10:35;96919.19;;;19.20;76.21
60479;BME280;46321;48.398;11.754;2022-07-22T06:13:00;96922.81;;;19.32;75.69
60479;BME280;46321;48.398;11.754;2022-07-22T06:15:26;96919.59;;;19.42;76.07
60479;BME280;46321;48.398;11.754;2022-07-22T06:17:51;96925.06;;;19.54;75.57
60479;BME280;46321;48.398;11.754;2022-07-22T06:20:16;96924.50;;;19.71;75.88
60479;BME280;46321;48.398;11.754;2022-07-22T06:22:41;96924.53;;;19.83;74.78
60479;BME280;46321;48.398;11.754;2022-07-22T06:25:07;96926.84;;;19.98;74.02
60479;BME280;46321;48.398;11.754;2022-07-22T06:27:33;96927.69;;;20.18;73.84
60479;BME280;46321;48.398;11.754;2022-07-22T06:29:58;96930.50;;;20.23;72.28
60479;BME280;46321;48.398;11.754;2022-07-22T06:32:24;96926.53;;;20.25;71.80
60479;BME280;46321;48.398;11.754;2022-07-22T06:34:49;96930.47;;;20.42;72.53
60479;BME280;46321;48.398;11.754;2022-07-22T06:37:14;96926.31;;;20.58;71.80
60479;BME280;46321;48.398;11.754;2022-07-22T06:39:40;96931.13;;;20.68;71.63
60479;BME280;46321;48.398;11.754;2022-07-22T06:42:05;96928.34;;;20.87;71.62
60479;BME280;46321;48.398;11.754;2022-07-22T06:44:30;96929.59;;;21.03;70.31
60479;BME280;46321;48.398;11.754;2022-07-22T06:46:55;96926.88;;;21.15;69.06
60479;BME280;46321;48.398;11.754;2022-07-22T06:49:21;96930.75;;;21.31;68.73
60479;BME280;46321;48.398;11.754;2022-07-22T06:51:46;96924.91;;;21.46;67.61
60479;BME280;46321;48.398;11.754;2022-07-22T06:54:12;96924.66;;;21.60;67.34
60479;BME280;46321;48.398;11.754;2022-07-22T06:56:37;96925.22;;;21.74;66.62
60479;BME280;46321;48.398;11.754;2022-07-22T06:59:02;96927.81;;;21.93;66.02
60479;BME280;46321;48.398;11.754;2022-07-22T07:01:27;96920.53;;;21.93;65.17
60479;BME280;46321;48.398;11.754;2022-07-22T07:03:53;96925.56;;;22.02;65.19
60479;BME280;46321;48.398;11.754;2022-07-22T07:06:18;96917.19;;;22.15;64.66
60479;BME280;46321;48.398;11.754;2022-07-22T07:08:43;96914.88;;;22.36;64.30
60479;BME280;46321;48.398;11.754;2022-07-22T07:11:09;96917.00;;;22.51;64.73
60479;BME280;46321;48.398;11.754;2022-07-22T07:13:34;96907.34;;;22.68;63.70
60479;BME280;46321;48.398;11.754;2022-07-22T07:15:59;96908.84;;;22.75;62.79
60479;BME280;46321;48.398;11.754;2022-07-22T07:18:25;96905.00;;;22.88;62.03
60479;BME280;46321;48.398;11.754;2022-07-22T07:20:50;96906.81;;;23.00;62.32
60479;BME280;46321;48.398;11.754;2022-07-22T07:23:15;96914.22;;;23.10;62.11
60479;BME280;46321;48.398;11.754;2022-07-22T07:25:41;96911.34;;;23.34;60.26
60479;BME280;46321;48.398;11.754;2022-07-22T07:28:07;96904.56;;;23.49;59.64
60479;BME280;46321;48.398;11.754;2022-07-22T07:30:32;96901.97;;;23.59;59.82
60479;BME280;46321;48.398;11.754;2022-07-22T07:32:58;96902.19;;;23.75;60.53
60479;BME280;46321;48.398;11.754;2022-07-22T07:35:25;96914.53;;;23.88;58.79
60479;BME280;46321;48.398;11.754;2022-07-22T07:37:51;96900.56;;;23.96;59.66
60479;BME280;46321;48.398;11.754;2022-07-22T07:40:16;96903.94;;;24.09;58.28
60479;BME280;46321;48.398;11.754;2022-07-22T07:42:41;96896.09;;;24.30;56.86
60479;BME280;46321;48.398;11.754;2022-07-22T07:45:07;96893.25;;;24.47;57.00
60479;BME280;46321;48.398;11.754;2022-07-22T07:47:32;96894.44;;;24.56;55.55
60479;BME280;46321;48.398;11.754;2022-07-22T07:49:57;96897.00;;;24.68;54.25
60479;BME280;46321;48.398;11.754;2022-07-22T07:52:25;96892.50;;;24.85;54.01
60479;BME280;46321;48.398;11.754;2022-07-22T07:54:50;96890.53;;;25.08;53.59
60479;BME280;46321;48.398;11.754;2022-07-22T07:57:16;96885.56;;;25.32;53.96
60479;BME280;46321;48.398;11.754;2022-07-22T07:59:41;96885.88;;;25.41;53.81
60479;BME280;46321;48.398;11.754;2022-07-22T08:02:07;96879.81;;;25.72;53.81
60479;BME280;46321;48.398;11.754;2022-07-22T08:04:33;96880.13;;;25.76;52.55
60479;BME280;46321;48.398;11.754;2022-07-22T08:06:59;96873.03;;;25.69;51.76
60479;BME280;46321;48.398;11.754;2022-07-22T08:09:25;96878.22;;;25.81;48.44
60479;BME280;46321;48.398;11.754;2022-07-22T08:11:50;96877.81;;;26.16;49.52
60479;BME280;46321;48.398;11.754;2022-07-22T08:14:16;96877.53;;;26.23;48.11
60479;BME280;46321;48.398;11.754;2022-07-22T08:16:42;96880.47;;;26.05;48.06
60479;BME280;46321;48.398;11.754;2022-07-22T08:19:07;96877.03;;;26.41;47.67
60479;BME280;46321;48.398;11.754;2022-07-22T08:21:33;96873.00;;;26.65;45.64
60479;BME280;46321;48.398;11.754;2022-07-22T08:23:58;96878.97;;;26.98;46.79
60479;BME280;46321;48.398;11.754;2022-07-22T08:26:23;96879.50;;;27.06;44.79
60479;BME280;46321;48.398;11.754;2022-07-22T08:28:49;96877.88;;;27.15;46.13
60479;BME280;46321;48.398;11.754;2022-07-22T08:31:14;96881.66;;;27.25;45.00
60479;BME280;46321;48.398;11.754;2022-07-22T08:33:40;96876.97;;;27.62;44.90
60479;BME280;46321;48.398;11.754;2022-07-22T08:36:05;96875.09;;;27.52;43.61
60479;BME280;46321;48.398;11.754;2022-07-22T08:38:31;96873.25;;;28.03;44.71
60479;BME280;46321;48.398;11.754;2022-07-22T08:40:57;96875.34;;;28.22;43.94
60479;BME280;46321;48.398;11.754;2022-07-22T08:43:24;96866.91;;;28.23;42.76
60479;BME280;46321;48.398;11.754;2022-07-22T08:45:49;96862.41;;;28.49;41.84
60479;BME280;46321;48.398;11.754;2022-07-22T08:48:15;96858.25;;;28.56;42.31
60479;BME280;46321;48.398;11.754;2022-07-22T08:50:41;96862.19;;;28.45;42.34
60479;BME280;46321;48.398;11.754;2022-07-22T08:53:13;96860.69;;;28.93;42.84
60479;BME280;46321;48.398;11.754;2022-07-22T08:55:45;96865.03;;;29.24;42.01
60479;BME280;46321;48.398;11.754;2022-07-22T08:58:11;96863.25;;;29.63;41.40
60479;BME280;46321;48.398;11.754;2022-07-22T09:00:37;96853.75;;;30.04;40.45
60479;BME280;46321;48.398;11.754;2022-07-22T09:05:45;96850.44;;;29.88;41.46
60479;BME280;46321;48.398;11.754;2022-07-22T09:08:10;96848.25;;;30.29;40.06
60479;BME280;46321;48.398;11.754;2022-07-22T09:10:36;96855.81;;;29.93;39.51
60479;BME280;46321;48.398;11.754;2022-07-22T09:13:03;96843.16;;;30.42;39.39
60479;BME280;46321;48.398;11.754;2022-07-22T09:15:34;96841.22;;;30.23;37.18
60479;BME280;46321;48.398;11.754;2022-07-22T09:18:05;96849.25;;;30.52;38.29
60479;BME280;46321;48.398;11.754;2022-07-22T09:20:32;96838.78;;;30.93;37.99
60479;BME280;46321;48.398;11.754;2022-07-22T09:22:58;96836.00;;;31.27;36.00
60479;BME280;46321;48.398;11.754;2022-07-22T09:25:25;96827.69;;;31.74;36.46
60479;BME280;46321;48.398;11.754;2022-07-22T09:28:10;96824.88;;;32.40;34.18
60479;BME280;46321;48.398;11.754;2022-07-22T09:30:48;96827.63;;;32.17;34.27
60479;BME280;46321;48.398;11.754;2022-07-22T09:33:14;96824.97;;;32.72;34.45
60479;BME280;46321;48.398;11.754;2022-07-22T09:35:39;96814.63;;;33.32;33.30
60479;BME280;46321;48.398;11.754;2022-07-22T09:38:09;96816.31;;;33.60;33.66
60479;BME280;46321;48.398;11.754;2022-07-22T09:40:37;96818.59;;;33.67;31.02
60479;BME280;46321;48.398;11.754;2022-07-22T09:43:18;96818.53;;;33.08;31.19
60479;BME280;46321;48.398;11.754;2022-07-22T09:45:49;96816.41;;;32.73;32.11
60479;BME280;46321;48.398;11.754;2022-07-22T09:48:21;96814.31;;;32.47;31.81
60479;BME280;46321;48.398;11.754;2022-07-22T09:50:48;96803.22;;;33.07;31.17
60479;BME280;46321;48.398;11.754;2022-07-22T09:53:15;96800.56;;;33.92;30.67
60479;BME280;46321;48.398;11.754;2022-07-22T09:55:41;96800.38;;;33.71;30.68
60479;BME280;46321;48.398;11.754;2022-07-22T09:58:07;96792.84;;;32.95;30.79
60479;BME280;46321;48.398;11.754;2022-07-22T10:00:33;96795.38;;;32.14;32.35
60479;BME280;46321;48.398;11.754;2022-07-22T10:03:01;96793.81;;;32.90;31.84
60479;BME280;46321;48.398;11.754;2022-07-22T10:05:29;96791.13;;;33.49;30.57
60479;BME280;46321;48.398;11.754;2022-07-22T10:07:55;96783.44;;;34.49;30.72
60479;BME280;46321;48.398;11.754;2022-07-22T10:10:25;96779.88;;;35.14;29.68
60479;BME280;46321;48.398;11.754;2022-07-22T10:12:53;96787.13;;;34.62;29.66
60479;BME280;46321;48.398;11.754;2022-07-22T10:15:19;96789.09;;;33.90;28.45
60479;BME280;46321;48.398;11.754;2022-07-22T10:17:47;96778.94;;;34.00;28.23
60479;BME280;46321;48.398;11.754;2022-07-22T10:20:16;96770.69;;;34.35;27.78
60479;BME280;46321;48.398;11.754;2022-07-22T10:22:44;96773.44;;;34.00;28.93
60479;BME280;46321;48.398;11.754;2022-07-22T10:25:12;96783.47;;;33.96;28.48
60479;BME280;46321;48.398;11.754;2022-07-22T10:27:45;96768.94;;;34.04;27.87
60479;BME280;46321;48.398;11.754;2022-07-22T10:30:11;96766.66;;;34.15;28.44
60479;BME280;46321;48.398;11.754;2022-07-22T10:32:37;96763.59;;;34.43;28.48
60479;BME280;46321;48.398;11.754;2022-07-22T10:40:31;96761.44;;;33.01;30.37
60479;BME280;46321;48.398;11.754;2022-07-22T10:43:10;96752.44;;;33.10;30.06
60479;BME280;46321;48.398;11.754;2022-07-22T10:45:49;96766.16;;;32.78;30.48
60479;BME280;46321;48.398;11.754;2022-07-22T10:48:17;96754.56;;;32.26;29.64
60479;BME280;46321;48.398;11.754;2022-07-22T10:50:48;96755.84;;;31.83;30.97
60479;BME280;46321;48.398;11.754;2022-07-22T10:53:49;96748.75;;;32.05;30.08
60479;BME280;46321;48.398;11.754;2022-07-22T10:56:20;96759.31;;;31.97;30.42
60479;BME280;46321;48.398;11.754;2022-07-22T10:59:08;96751.91;;;31.75;29.09
60479;BME280;46321;48.398;11.754;2022-07-22T11:01:36;96752.56;;;31.29;30.39
60479;BME280;46321;48.398;11.754;2022-07-22T11:04:27;96748.94;;;31.06;32.11
60479;BME280;46321;48.398;11.754;2022-07-22T11:06:55;96743.47;;;31.34;31.09
60479;BME280;46321;48.398;11.754;2022-07-22T11:09:33;96748.72;;;31.30;30.92
60479;BME280;46321;48.398;11.754;2022-07-22T11:11:58;96737.13;;;31.48;30.09
60479;BME280;46321;48.398;11.754;2022-07-22T11:14:27;96735.75;;;30.94;29.09
60479;BME280;46321;48.398;11.754;2022-07-22T11:16:55;96738.41;;;31.13;30.10
60479;BME280;46321;48.398;11.754;2022-07-22T11:19:28;96741.03;;;30.90;28.98
60479;BME280;46321;48.398;11.754;2022-07-22T11:22:00;96732.63;;;31.01;27.94
60479;BME280;46321;48.398;11.754;2022-07-22T11:24:30;96733.25;;;31.12;27.82
60479;BME280;46321;48.398;11.754;2022-07-22T11:26:57;96734.13;;;31.21;30.44
60479;BME280;46321;48.398;11.754;2022-07-22T11:29:29;96723.59;;;31.28;29.98
60479;BME280;46321;48.398;11.754;2022-07-22T11:31:56;96730.91;;;31.19;30.07
60479;BME280;46321;48.398;11.754;2022-07-22T11:34:22;96720.00;;;31.05;30.00
60479;BME280;46321;48.398;11.754;2022-07-22T11:36:49;96718.66;;;31.16;31.42
60479;BME280;46321;48.398;11.754;2022-07-22T11:39:19;96706.81;;;31.21;31.71
60479;BME280;46321;48.398;11.754;2022-07-22T11:41:44;96705.81;;;31.17;32.34
60479;BME280;46321;48.398;11.754;2022-07-22T11:44:10;96707.22;;;31.28;31.91
60479;BME280;46321;48.398;11.754;2022-07-22T11:46:40;96707.63;;;31.07;31.74
60479;BME280;46321;48.398;11.754;2022-07-22T11:49:07;96703.13;;;30.69;32.71
60479;BME280;46321;48.398;11.754;2022-07-22T11:51:34;96703.53;;;30.62;32.07
60479;BME280;46321;48.398;11.754;2022-07-22T11:54:01;96697.69;;;30.55;32.64
60479;BME280;46321;48.398;11.754;2022-07-22T11:56:26;96695.06;;;30.78;32.83
60479;BME280;46321;48.398;11.754;2022-07-22T11:58:53;96694.16;;;30.83;32.58
60479;BME280;46321;48.398;11.754;2022-07-22T12:01:26;96696.50;;;30.90;32.98
60479;BME280;46321;48.398;11.754;2022-07-22T12:03:54;96686.75;;;30.55;32.45
60479;BME280;46321;48.398;11.754;2022-07-22T12:06:22;96684.50;;;30.43;32.54
60479;BME280;46321;48.398;11.754;2022-07-22T12:08:50;96683.81;;;30.37;32.35
60479;BME280;46321;48.398;11.754;2022-07-22T12:11:17;96676.44;;;30.52;33.49
60479;BME280;46321;48.398;11.754;2022-07-22T12:13:45;96671.31;;;30.65;34.96
60479;BME280;46321;48.398;11.754;2022-07-22T12:18:57;96665.13;;;30.73;32.74
60479;BME280;46321;48.398;11.754;2022-07-22T12:21:29;96663.72;;;30.76;34.41
60479;BME280;46321;48.398;11.754;2022-07-22T12:24:08;96661.28;;;30.46;32.37
60479;BME280;46321;48.398;11.754;2022-07-22T12:26:46;96659.84;;;30.62;33.71
60479;BME280;46321;48.398;11.754;2022-07-22T12:29:24;96661.28;;;30.74;33.15
60479;BME280;46321;48.398;11.754;2022-07-22T12:32:01;96663.72;;;30.76;33.02
60479;BME280;46321;48.398;11.754;2022-07-22T12:34:38;96655.22;;;30.63;33.32
60479;BME280;46321;48.398;11.754;2022-07-22T12:37:14;96653.78;;;30.51;33.36
60479;BME280;46321;48.398;11.754;2022-07-22T12:39:40;96651.75;;;30.43;32.63
60479;BME280;46321;48.398;11.754;2022-07-22T12:42:17;96654.38;;;30.34;33.40
60479;BME280;46321;48.398;11.754;2022-07-22T12:44:51;96654.47;;;30.29;32.43
60479;BME280;46321;48.398;11.754;2022-07-22T12:47:17;96648.31;;;30.37;32.54
60479;BME280;46321;48.398;11.754;2022-07-22T12:49:42;96644.13;;;30.26;33.97
60479;BME280;46321;48.398;11.754;2022-07-22T12:52:10;96642.88;;;30.37;32.65
60479;BME280;46321;48.398;11.754;2022-07-22T12:54:37;96635.16;;;30.54;31.76
60479;BME280;46321;48.398;11.754;2022-07-22T12:57:04;96638.31;;;30.61;32.49
60479;BME280;46321;48.398;11.754;2022-07-22T12:59:30;96635.00;;;30.64;33.00